createdAt,value
2023-04-22T00:02:23.614Z,28.87
2023-04-22T00:04:51.117Z,29.77
2023-04-22T00:07:18.093Z,29.10
2023-04-22T00:09:45.910Z,28.37
2023-04-22T00:12:12.826Z,25.80
2023-04-22T00:14:39.650Z,26.43
2023-04-22T00:17:07.293Z,30.47
2023-04-22T00:19:34.749Z,26.80
2023-04-22T00:22:01.884Z,23.83
2023-04-22T00:24:28.730Z,31.73
2023-04-22T00:26:55.612Z,27.93
2023-04-22T00:29:22.724Z,25.03
2023-04-22T00:31:49.688Z,27.87
2023-04-22T00:34:18.136Z,26.00
2023-04-22T00:36:44.991Z,20.93
2023-04-22T00:39:12.539Z,19.60
2023-04-22T00:41:39.829Z,21.30
2023-04-22T00:44:13.667Z,23.47
2023-04-22T00:46:40.823Z,20.83
2023-04-22T00:49:08.314Z,24.77
2023-04-22T00:51:35.488Z,20.77
2023-04-22T00:54:04.036Z,21.60
2023-04-22T00:56:31.927Z,24.80
2023-04-22T00:58:59.097Z,24.27
2023-04-22T01:01:26.798Z,31.33
2023-04-22T01:03:54.055Z,22.50
2023-04-22T01:06:22.534Z,23.40
2023-04-22T01:08:49.345Z,23.37
2023-04-22T01:11:16.740Z,30.50
2023-04-22T01:13:43.551Z,23.90
2023-04-22T01:16:11.123Z,25.20
2023-04-22T01:18:38.117Z,25.20
2023-04-22T01:21:05.700Z,23.43
2023-04-22T01:53:27.991Z,21.93
2023-04-22T01:55:54.826Z,21.87
2023-04-22T01:58:21.585Z,16.67
2023-04-22T02:00:48.937Z,21.37
2023-04-22T02:03:15.818Z,20.43
2023-04-22T02:05:42.766Z,22.93
2023-04-22T02:08:09.562Z,20.83
2023-04-22T02:10:36.387Z,19.80
2023-04-22T02:13:03.143Z,21.53
2023-04-22T02:15:31.421Z,22.03
2023-04-22T02:17:58.465Z,19.27
2023-04-22T02:20:25.226Z,19.60
2023-04-22T02:22:52.089Z,20.70
2023-04-22T02:25:20.289Z,22.30
2023-04-22T02:27:47.018Z,18.87
2023-04-22T02:30:14.817Z,18.70
2023-04-22T02:32:41.689Z,22.33
2023-04-22T02:35:08.749Z,20.07
2023-04-22T02:37:35.500Z,20.63
2023-04-22T02:40:02.363Z,21.20
2023-04-22T02:42:30.599Z,22.83
2023-04-22T02:44:57.466Z,20.27
2023-04-22T02:47:24.456Z,22.90
2023-04-22T02:49:51.277Z,23.00
2023-04-22T02:52:18.349Z,21.53
2023-04-22T02:54:45.753Z,21.47
2023-04-22T02:57:12.564Z,19.80
2023-04-22T02:59:39.934Z,26.00
2023-04-22T03:02:07.367Z,23.90
2023-04-22T03:04:45.628Z,20.97
2023-04-22T03:07:12.860Z,18.47
2023-04-22T03:09:40.371Z,15.63
2023-04-22T03:12:07.380Z,16.43
2023-04-22T03:14:34.482Z,17.07
2023-04-22T03:17:02.383Z,17.37
2023-04-22T03:19:29.603Z,20.63
2023-04-22T03:21:57.198Z,20.40
2023-04-22T03:24:23.964Z,19.70
2023-04-22T03:26:52.641Z,21.73
2023-04-22T03:29:19.496Z,16.47
2023-04-22T03:31:46.352Z,18.40
2023-04-22T03:34:13.238Z,19.60
2023-04-22T03:36:41.522Z,19.40
2023-04-22T03:39:08.487Z,19.60
2023-04-22T03:41:35.436Z,20.57
2023-04-22T03:44:02.618Z,19.50
2023-04-22T03:46:31.718Z,23.30
2023-04-22T03:49:24.447Z,17.37
2023-04-22T03:51:51.401Z,23.13
2023-04-22T03:54:22.883Z,22.93
2023-04-22T03:56:52.042Z,21.17
2023-04-22T03:59:21.252Z,20.70
2023-04-22T04:01:51.513Z,22.50
2023-04-22T04:04:21.113Z,22.13
2023-04-22T04:06:56.659Z,20.77
2023-04-22T04:09:23.446Z,20.83
2023-04-22T04:11:51.313Z,19.43
2023-04-22T04:14:18.078Z,24.93
2023-04-22T04:16:47.074Z,20.40
2023-04-22T04:19:20.934Z,23.13
2023-04-22T04:21:48.082Z,22.37
2023-04-22T04:24:15.270Z,22.20
2023-04-22T04:26:47.502Z,20.80
2023-04-22T04:29:20.469Z,21.90
2023-04-22T04:31:57.140Z,21.20
2023-04-22T04:34:29.251Z,25.90
2023-04-22T04:36:57.270Z,22.87
2023-04-22T04:39:33.128Z,21.43
2023-04-22T04:42:01.896Z,27.93
2023-04-22T04:44:32.059Z,30.00
2023-04-22T04:46:59.611Z,23.23
2023-04-22T04:49:30.727Z,24.23
2023-04-22T04:51:59.796Z,27.60
2023-04-22T04:54:28.110Z,26.03
2023-04-22T04:56:57.466Z,24.67
2023-04-22T04:59:25.567Z,26.77
2023-04-22T05:01:52.965Z,26.53
2023-04-22T05:04:19.995Z,28.23
2023-04-22T05:06:48.391Z,28.77
2023-04-22T05:09:15.700Z,30.23
2023-04-22T05:11:44.172Z,27.03
2023-04-22T05:14:18.579Z,28.40
2023-04-22T05:16:46.706Z,31.70
2023-04-22T05:19:14.628Z,31.73
2023-04-22T05:21:42.381Z,28.00
2023-04-22T05:24:09.304Z,25.83
2023-04-22T05:26:36.362Z,26.07
2023-04-22T05:29:09.682Z,31.47
2023-04-22T05:31:36.659Z,30.03
2023-04-22T05:34:03.515Z,33.70
2023-04-22T05:36:32.233Z,36.73
2023-04-22T05:38:59.834Z,41.17
2023-04-22T05:41:27.483Z,35.13
2023-04-22T05:43:55.912Z,32.57
2023-04-22T05:46:23.608Z,37.03
2023-04-22T05:48:51.498Z,29.17
2023-04-22T05:51:37.136Z,31.33
2023-04-22T05:54:04.301Z,33.53
2023-04-22T05:56:31.285Z,33.73
2023-04-22T05:58:58.176Z,33.33
2023-04-22T06:01:26.136Z,32.70
2023-04-22T06:03:58.618Z,34.67
2023-04-22T06:06:27.642Z,28.67
2023-04-22T06:08:54.606Z,34.90
2023-04-22T06:11:22.306Z,37.07
2023-04-22T06:13:49.215Z,28.83
2023-04-22T06:16:16.526Z,27.03
2023-04-22T06:18:46.073Z,31.80
2023-04-22T06:21:12.883Z,31.50
2023-04-22T06:23:40.062Z,34.47
2023-04-22T06:26:06.920Z,30.03
2023-04-22T06:28:35.895Z,24.27
2023-04-22T06:31:07.719Z,22.83
2023-04-22T06:33:35.967Z,24.80
2023-04-22T06:36:02.792Z,27.13
2023-04-22T06:38:31.104Z,26.30
2023-04-22T06:41:32.565Z,25.33
2023-04-22T06:44:04.932Z,23.30
2023-04-22T06:47:03.272Z,24.77
2023-04-22T06:49:50.655Z,25.80
2023-04-22T06:52:38.958Z,27.67
2023-04-22T06:55:06.667Z,30.10
2023-04-22T06:57:33.524Z,24.90
2023-04-22T07:00:00.499Z,26.73
2023-04-22T07:02:27.638Z,27.97
2023-04-22T07:04:54.585Z,23.90
2023-04-22T07:07:21.443Z,20.80
2023-04-22T07:09:48.931Z,26.37
2023-04-22T07:12:15.932Z,24.63
2023-04-22T07:14:43.504Z,23.43
2023-04-22T07:17:10.857Z,25.67
2023-04-22T07:19:38.027Z,25.90
2023-04-22T07:22:06.429Z,24.77
2023-04-22T07:24:33.299Z,21.53
2023-04-22T07:27:00.090Z,20.37
2023-04-22T07:29:27.069Z,17.57
2023-04-22T07:31:53.900Z,17.03
2023-04-22T07:34:20.999Z,18.80
2023-04-22T07:36:47.803Z,20.33
2023-04-22T07:39:14.721Z,15.47
2023-04-22T07:41:41.486Z,16.43
2023-04-22T07:44:08.365Z,21.13
2023-04-22T07:46:35.267Z,23.90
2023-04-22T07:49:02.060Z,20.40
2023-04-22T07:51:28.968Z,20.97
2023-04-22T07:53:55.957Z,19.60
2023-04-22T07:56:23.018Z,20.80
2023-04-22T07:58:49.776Z,18.13
2023-04-22T08:01:19.362Z,17.83
2023-04-22T08:03:47.326Z,20.40
2023-04-22T08:06:14.358Z,23.50
2023-04-22T08:08:41.217Z,23.63
2023-04-22T08:11:08.082Z,22.63
2023-04-22T08:13:34.860Z,23.03
2023-04-22T08:16:04.836Z,19.67
2023-04-22T08:18:31.864Z,15.67
2023-04-22T08:20:58.622Z,20.43
2023-04-22T08:23:26.075Z,15.90
2023-04-22T08:25:52.990Z,12.90
2023-04-22T08:28:20.251Z,11.03
2023-04-22T08:30:47.114Z,14.73
2023-04-22T08:33:13.875Z,11.47
2023-04-22T08:35:40.915Z,8.27
2023-04-22T08:38:07.768Z,8.63
2023-04-22T08:40:34.825Z,9.87
2023-04-22T08:43:01.698Z,6.80
2023-04-22T08:45:28.980Z,7.30
2023-04-22T08:47:56.592Z,9.67
2023-04-22T08:50:23.555Z,7.17
2023-04-22T08:52:50.758Z,10.03
2023-04-22T08:55:17.622Z,5.63
2023-04-22T08:57:44.765Z,7.93
2023-04-22T09:00:11.901Z,8.40
2023-04-22T09:02:40.303Z,8.07
2023-04-22T09:05:08.395Z,6.60
2023-04-22T09:07:36.544Z,8.40
2023-04-22T09:10:03.405Z,6.63
2023-04-22T09:12:30.316Z,15.27
2023-04-22T09:14:57.228Z,10.70
2023-04-22T09:17:31.275Z,10.03
2023-04-22T09:19:59.535Z,7.70
2023-04-22T09:22:27.642Z,15.63
2023-04-22T09:24:54.548Z,9.20
2023-04-22T09:27:24.228Z,8.80
2023-04-22T09:29:51.708Z,7.73
2023-04-22T09:32:18.647Z,5.97
2023-04-22T09:34:49.663Z,6.33
2023-04-22T09:37:18.719Z,14.77
2023-04-22T09:39:49.606Z,8.70
2023-04-22T09:42:20.084Z,8.73
2023-04-22T09:44:47.852Z,8.97
2023-04-22T09:47:14.939Z,7.07
2023-04-22T09:49:46.209Z,8.40
2023-04-22T09:52:21.738Z,10.03
2023-04-22T09:54:54.876Z,8.43
2023-04-22T09:57:22.293Z,9.97
2023-04-22T09:59:53.189Z,8.80
2023-04-22T10:02:28.582Z,7.07
2023-04-22T10:04:55.645Z,10.77
2023-04-22T10:07:22.555Z,7.57
2023-04-22T10:09:49.536Z,8.50
2023-04-22T10:12:18.450Z,10.30
2023-04-22T10:14:50.089Z,6.93
2023-04-22T10:17:17.563Z,6.43
2023-04-22T10:19:46.727Z,9.40
2023-04-22T10:22:14.234Z,6.30
2023-04-22T10:24:42.293Z,8.33
2023-04-22T10:27:10.907Z,7.70
2023-04-22T10:29:39.362Z,5.73
2023-04-22T10:32:24.033Z,8.00
2023-04-22T10:35:06.631Z,6.77
2023-04-22T10:37:34.106Z,6.40
2023-04-22T10:40:11.653Z,8.87
2023-04-22T10:42:42.055Z,6.07
2023-04-22T10:45:13.258Z,7.33
2023-04-22T10:47:42.081Z,11.43
2023-04-22T10:50:17.337Z,6.60
2023-04-22T10:52:46.517Z,11.37
2023-04-22T10:55:13.315Z,6.63
2023-04-22T10:57:41.799Z,5.30
2023-04-22T11:00:41.921Z,9.37
2023-04-22T11:03:18.770Z,5.87
2023-04-22T11:05:46.030Z,7.47
2023-04-22T11:08:20.677Z,9.57
2023-04-22T11:10:51.262Z,32.87
2023-04-22T11:13:19.654Z,8.83
2023-04-22T11:15:48.308Z,9.40
2023-04-22T11:18:22.236Z,21.30
2023-04-22T11:20:50.070Z,24.30
2023-04-22T11:23:24.428Z,6.40
2023-04-22T11:25:58.477Z,7.73
2023-04-22T11:28:25.513Z,23.77
2023-04-22T11:30:52.694Z,31.73
2023-04-22T11:33:19.972Z,15.70
2023-04-22T11:35:49.279Z,6.47
2023-04-22T11:38:16.279Z,8.87
2023-04-22T11:40:46.101Z,9.70
2023-04-22T11:43:14.235Z,7.37
2023-04-22T11:45:41.274Z,9.13
2023-04-22T11:48:09.354Z,9.00
2023-04-22T11:50:36.969Z,7.57
2023-04-22T11:53:12.881Z,15.27
2023-04-22T11:55:40.326Z,9.20
2023-04-22T11:58:08.302Z,9.80
2023-04-22T12:00:37.329Z,6.70
2023-04-22T12:03:05.089Z,6.93
2023-04-22T12:05:32.863Z,8.50
2023-04-22T12:08:00.544Z,5.73
2023-04-22T12:10:27.367Z,11.87
2023-04-22T12:12:54.866Z,8.37
2023-04-22T12:15:21.776Z,9.23
2023-04-22T12:17:51.791Z,7.10
2023-04-22T12:20:18.991Z,10.17
2023-04-22T12:22:45.786Z,7.60
2023-04-22T12:25:17.686Z,7.40
2023-04-22T12:27:44.475Z,11.87
2023-04-22T12:30:11.460Z,10.60
2023-04-22T12:32:38.368Z,7.57
2023-04-22T12:35:05.225Z,7.57
2023-04-22T12:37:32.035Z,11.40
2023-04-22T12:39:58.984Z,8.70
2023-04-22T12:42:25.807Z,12.43
2023-04-22T12:44:52.677Z,9.73
2023-04-22T12:47:20.041Z,13.50
2023-04-22T12:49:47.479Z,8.20
2023-04-22T12:52:14.487Z,13.50
2023-04-22T12:54:41.344Z,8.50
2023-04-22T12:57:08.191Z,13.57
2023-04-22T12:59:35.117Z,9.83
2023-04-22T13:02:02.004Z,7.90
2023-04-22T13:04:29.104Z,8.77
2023-04-22T13:06:58.874Z,9.07
2023-04-22T13:09:26.387Z,7.63
2023-04-22T13:11:53.333Z,9.47
2023-04-22T13:14:20.111Z,9.87
2023-04-22T13:16:47.046Z,8.13
2023-04-22T13:19:14.114Z,11.03
2023-04-22T13:21:40.937Z,9.27
2023-04-22T13:24:07.912Z,12.63
2023-04-22T13:26:35.968Z,42.47
2023-04-22T13:29:02.997Z,12.47
2023-04-22T13:31:29.935Z,23.20
2023-04-22T13:33:56.754Z,21.03
2023-04-22T13:36:23.583Z,7.17
2023-04-22T13:38:51.344Z,9.53
2023-04-22T13:41:18.743Z,9.80
2023-04-22T13:43:45.603Z,6.90
2023-04-22T13:46:12.561Z,10.03
2023-04-22T13:48:39.450Z,7.67
2023-04-22T13:51:06.198Z,9.00
2023-04-22T13:53:34.487Z,8.97
2023-04-22T13:56:01.490Z,6.20
2023-04-22T13:58:28.295Z,6.80
2023-04-22T14:00:55.546Z,6.57
2023-04-22T14:03:22.700Z,17.70
2023-04-22T14:05:49.784Z,10.03
2023-04-22T14:08:16.627Z,6.37
2023-04-22T14:10:43.722Z,6.70
2023-04-22T14:13:10.459Z,7.40
2023-04-22T14:15:38.752Z,6.60
2023-04-22T14:18:05.618Z,5.87
2023-04-22T14:20:32.456Z,7.87
2023-04-22T14:22:59.231Z,8.83
2023-04-22T14:25:26.084Z,9.33
2023-04-22T14:27:52.884Z,20.10
2023-04-22T14:30:21.911Z,11.10
2023-04-22T14:32:49.167Z,8.53
2023-04-22T14:35:15.996Z,11.13
2023-04-22T14:37:45.238Z,18.13
2023-04-22T14:40:14.981Z,8.77
2023-04-22T14:42:41.808Z,8.73
2023-04-22T14:45:08.934Z,8.23
2023-04-22T14:47:35.940Z,12.67
2023-04-22T14:50:02.866Z,14.13
2023-04-22T14:52:31.452Z,12.20
2023-04-22T14:55:00.181Z,10.13
2023-04-22T14:57:30.930Z,9.10
2023-04-22T14:59:57.674Z,11.33
2023-04-22T15:02:24.978Z,8.27
2023-04-22T15:04:52.450Z,10.43
2023-04-22T15:07:19.332Z,8.93
2023-04-22T15:09:46.171Z,8.97
2023-04-22T15:12:12.893Z,7.33
2023-04-22T15:14:39.827Z,9.40
2023-04-22T15:17:06.633Z,9.23
2023-04-22T15:19:33.802Z,11.20
2023-04-22T15:22:00.545Z,10.53
2023-04-22T15:24:27.457Z,9.17
2023-04-22T15:26:54.505Z,8.87
2023-04-22T15:29:21.344Z,9.07
2023-04-22T15:31:48.288Z,11.50
2023-04-22T15:34:15.200Z,8.63
2023-04-22T15:36:42.625Z,9.87
2023-04-22T15:39:10.919Z,9.10
2023-04-22T15:41:37.714Z,8.53
2023-04-22T15:44:05.527Z,10.63
2023-04-22T15:46:34.313Z,7.30
2023-04-22T15:49:02.007Z,9.13
2023-04-22T15:51:29.135Z,7.33
2023-04-22T15:53:59.434Z,10.70
2023-04-22T15:56:26.415Z,8.13
2023-04-22T15:58:53.219Z,8.77
2023-04-22T16:01:20.631Z,6.77
2023-04-22T16:03:48.260Z,7.97
2023-04-22T16:06:15.429Z,6.93
2023-04-22T16:08:42.228Z,10.17
2023-04-22T16:11:09.106Z,8.77
2023-04-22T16:13:36.296Z,6.03
2023-04-22T16:16:03.375Z,10.20
2023-04-22T16:18:30.706Z,9.77
2023-04-22T16:20:59.038Z,6.23
2023-04-22T16:23:26.033Z,7.23
2023-04-22T16:25:52.898Z,7.97
2023-04-22T16:28:19.735Z,10.70
2023-04-22T16:30:46.886Z,9.20
2023-04-22T16:33:14.648Z,9.87
2023-04-22T16:35:41.893Z,11.17
2023-04-22T16:38:08.722Z,34.83
2023-04-22T16:40:37.006Z,8.23
2023-04-22T16:43:05.356Z,8.17
2023-04-22T16:45:32.452Z,9.60
2023-04-22T16:47:59.328Z,9.87
2023-04-22T16:50:26.326Z,6.97
2023-04-22T16:52:53.109Z,6.50
2023-04-22T16:55:20.089Z,7.57
2023-04-22T16:57:50.892Z,7.30
2023-04-22T17:00:18.849Z,7.37
2023-04-22T17:02:45.993Z,7.63
2023-04-22T17:05:12.974Z,9.47
2023-04-22T17:07:39.763Z,11.93
2023-04-22T17:10:06.875Z,6.20
2023-04-22T17:12:34.079Z,8.23
2023-04-22T17:15:00.821Z,5.80
2023-04-22T17:17:27.712Z,7.50
2023-04-22T17:19:55.004Z,9.17
2023-04-22T17:22:24.815Z,8.70
2023-04-22T17:24:52.090Z,6.23
2023-04-22T17:27:18.896Z,11.33
2023-04-22T17:29:46.699Z,9.03
2023-04-22T17:32:13.478Z,5.33
2023-04-22T17:34:40.625Z,11.47
2023-04-22T17:37:07.761Z,9.43
2023-04-22T17:39:34.559Z,8.87
2023-04-22T17:42:02.627Z,9.40
2023-04-22T17:44:29.456Z,8.40
2023-04-22T17:46:56.270Z,16.27
2023-04-22T17:49:23.145Z,8.73
2023-04-22T17:51:49.954Z,9.13
2023-04-22T17:54:16.916Z,9.87
2023-04-22T17:56:43.818Z,12.87
2023-04-22T17:59:11.595Z,12.37
2023-04-22T18:01:39.497Z,10.90
2023-04-22T18:04:06.579Z,13.07
2023-04-22T18:06:33.571Z,6.00
2023-04-22T18:09:00.563Z,7.97
2023-04-22T18:11:28.057Z,8.43
2023-04-22T18:13:55.077Z,9.07
2023-04-22T18:16:22.094Z,13.20
2023-04-22T18:18:48.844Z,7.47
2023-04-22T18:21:15.779Z,15.40
2023-04-22T18:23:42.779Z,7.17
2023-04-22T18:26:12.387Z,13.30
2023-04-22T18:28:41.177Z,25.33
2023-04-22T18:31:08.340Z,15.90
2023-04-22T18:33:35.188Z,13.40
2023-04-22T18:36:02.492Z,11.00
2023-04-22T18:38:29.357Z,8.17
2023-04-22T18:40:56.384Z,9.70
2023-04-22T18:43:23.276Z,12.17
2023-04-22T18:45:50.273Z,14.77
2023-04-22T18:48:18.868Z,16.37
2023-04-22T18:50:45.799Z,14.53
2023-04-22T18:53:12.638Z,10.63
2023-04-22T18:55:39.528Z,15.60
2023-04-22T18:58:06.412Z,16.87
2023-04-22T19:00:33.185Z,17.67
2023-04-22T19:03:00.055Z,23.80
2023-04-22T19:05:27.093Z,27.33
2023-04-22T19:07:53.948Z,26.57
2023-04-22T19:10:21.045Z,42.53
2023-04-22T19:12:47.807Z,28.87
2023-04-22T19:15:14.788Z,29.60
2023-04-22T19:17:42.740Z,39.87
2023-04-22T19:20:09.892Z,30.50
2023-04-22T19:22:36.777Z,35.37
2023-04-22T19:25:05.001Z,22.53
2023-04-22T19:27:32.349Z,15.37
2023-04-22T19:29:59.173Z,9.93
2023-04-22T19:32:26.306Z,14.33
2023-04-22T19:34:53.162Z,10.73
2023-04-22T19:37:20.282Z,12.17
2023-04-22T19:39:47.024Z,11.53
2023-04-22T19:42:13.943Z,13.77
2023-04-22T19:44:43.118Z,11.67
2023-04-22T19:47:10.092Z,14.70
2023-04-22T19:49:39.135Z,12.13
2023-04-22T19:52:09.248Z,11.10
2023-04-22T19:54:36.749Z,11.40
2023-04-22T19:57:06.629Z,11.03
2023-04-22T19:59:33.911Z,14.67
2023-04-22T20:02:01.043Z,9.57
2023-04-22T20:04:28.127Z,14.37
2023-04-22T20:06:55.248Z,14.33
2023-04-22T20:09:22.411Z,14.73
2023-04-22T20:11:49.357Z,10.57
2023-04-22T20:14:16.417Z,11.13
2023-04-22T20:16:43.672Z,10.30
2023-04-22T20:19:11.907Z,12.30
2023-04-22T20:21:40.064Z,10.73
2023-04-22T20:24:07.673Z,13.17
2023-04-22T20:26:34.598Z,13.23
2023-04-22T20:29:02.334Z,10.20
2023-04-22T20:31:29.374Z,12.43
2023-04-22T20:33:57.383Z,10.53
2023-04-22T20:36:24.407Z,13.23
2023-04-22T20:38:55.059Z,13.00
2023-04-22T20:41:24.796Z,13.67
2023-04-22T20:43:52.524Z,13.70
2023-04-22T20:46:21.440Z,13.63
2023-04-22T20:48:49.583Z,12.70
2023-04-22T20:51:16.457Z,11.47
2023-04-22T20:53:43.499Z,14.83
2023-04-22T20:56:10.227Z,14.40
2023-04-22T20:58:37.048Z,17.30
2023-04-22T21:01:04.354Z,13.53
2023-04-22T21:03:32.473Z,14.70
2023-04-22T21:05:59.991Z,16.20
2023-04-22T21:08:26.990Z,13.90
2023-04-22T21:10:55.322Z,14.87
2023-04-22T21:13:22.927Z,13.20
2023-04-22T21:15:58.441Z,14.23
2023-04-22T21:18:26.370Z,16.30
2023-04-22T21:20:53.871Z,14.33
2023-04-22T21:23:21.152Z,13.57
2023-04-22T21:25:48.812Z,13.57
2023-04-22T21:28:16.226Z,14.50
2023-04-22T21:30:43.975Z,14.63
2023-04-22T21:33:10.838Z,15.93
2023-04-22T21:35:39.383Z,16.97
2023-04-22T21:38:06.546Z,14.60
2023-04-22T21:40:33.309Z,14.03
2023-04-22T21:43:04.591Z,13.40
2023-04-22T21:45:31.526Z,17.37
2023-04-22T21:48:01.419Z,16.33
2023-04-22T21:50:30.362Z,12.50
2023-04-22T21:52:57.408Z,13.60
2023-04-22T21:55:24.171Z,13.43
2023-04-22T21:57:51.275Z,14.90
2023-04-22T22:00:18.769Z,13.63
2023-04-22T22:02:45.976Z,15.10
2023-04-22T22:05:13.812Z,17.80
2023-04-22T22:07:43.535Z,13.30
2023-04-22T22:10:19.400Z,14.57
2023-04-22T22:12:47.018Z,15.70
2023-04-22T22:15:14.017Z,19.03
2023-04-22T22:17:40.835Z,15.43
2023-04-22T22:20:11.401Z,17.03
2023-04-22T22:22:38.895Z,17.60
2023-04-22T22:25:09.531Z,19.10
2023-04-22T22:27:36.690Z,15.90
2023-04-22T22:30:03.876Z,16.43
2023-04-22T22:32:31.429Z,15.13
2023-04-22T22:34:58.372Z,18.80
2023-04-22T22:37:25.511Z,15.20
2023-04-22T22:39:52.510Z,15.10
2023-04-22T22:42:19.309Z,14.93
2023-04-22T22:44:46.140Z,14.97
2023-04-22T22:47:13.292Z,17.47
2023-04-22T22:49:40.911Z,18.67
2023-04-22T22:52:07.742Z,18.80
2023-04-22T22:54:38.106Z,17.27
2023-04-22T22:57:07.893Z,20.53
2023-04-22T22:59:35.653Z,23.30
2023-04-22T23:02:02.673Z,23.00
2023-04-22T23:04:30.410Z,23.07
2023-04-22T23:06:57.286Z,17.97
2023-04-22T23:09:24.083Z,21.13
2023-04-22T23:11:55.355Z,22.10
2023-04-22T23:14:22.830Z,22.43
2023-04-22T23:16:49.971Z,21.43
2023-04-22T23:19:18.217Z,19.77
2023-04-22T23:21:45.531Z,19.60
2023-04-22T23:24:13.667Z,22.93
2023-04-22T23:26:40.890Z,19.07
2023-04-22T23:29:08.124Z,19.33
2023-04-22T23:31:35.499Z,25.33
2023-04-22T23:34:03.120Z,18.20
2023-04-22T23:36:31.712Z,19.43
2023-04-22T23:38:58.662Z,23.03
2023-04-22T23:41:25.738Z,20.20
2023-04-22T23:43:52.535Z,21.97
2023-04-22T23:46:19.657Z,21.53
2023-04-22T23:48:46.584Z,21.93
2023-04-22T23:51:17.029Z,22.40
2023-04-22T23:53:44.505Z,21.20
2023-04-22T23:56:11.892Z,19.60
2023-04-22T23:58:39.260Z,21.43
